sensor_id;sensor_type;location;lat;lon;timestamp;temperature;humidity
4207;DHT22;2117;47.972;7.830;2022-09-02T03:32:12;14.40;99.90
4207;DHT22;2117;47.972;7.830;2022-09-02T03:34:38;14.40;99.90
4207;DHT22;2117;47.972;7.830;2022-09-02T03:37:04;14.40;99.90
4207;DHT22;2117;47.972;7.830;2022-09-02T03:39:29;14.40;99.90
4207;DHT22;2117;47.972;7.830;2022-09-02T03:41:55;14.40;99.90
4207;DHT22;2117;47.972;7.830;2022-09-02T03:44:20;14.40;99.90
4207;DHT22;2117;47.972;7.830;2022-09-02T03:46:46;14.40;99.90
4207;DHT22;2117;47.972;7.830;2022-09-02T03:49:12;14.40;99.90
4207;DHT22;2117;47.972;7.830;2022-09-02T03:51:42;14.40;99.90
4207;DHT22;2117;47.972;7.830;2022-09-02T03:54:08;14.40;99.90
4207;DHT22;2117;47.972;7.830;2022-09-02T03:56:34;14.30;99.90
4207;DHT22;2117;47.972;7.830;2022-09-02T03:59:00;14.30;99.90
4207;DHT22;2117;47.972;7.830;2022-09-02T04:01:26;14.30;99.90
4207;DHT22;2117;47.972;7.830;2022-09-02T04:03:52;14.30;99.90
4207;DHT22;2117;47.972;7.830;2022-09-02T04:06:20;14.30;99.90
4207;DHT22;2117;47.972;7.830;2022-09-02T04:08:46;14.30;99.90
4207;DHT22;2117;47.972;7.830;2022-09-02T04:11:18;14.30;99.90
4207;DHT22;2117;47.972;7.830;2022-09-02T04:13:44;14.30;99.90
4207;DHT22;2117;47.972;7.830;2022-09-02T04:16:16;14.30;99.90
4207;DHT22;2117;47.972;7.830;2022-09-02T04:18:41;14.30;99.90
4207;DHT22;2117;47.972;7.830;2022-09-02T04:21:07;14.30;99.90
4207;DHT22;2117;47.972;7.830;2022-09-02T04:23:33;14.20;99.90
4207;DHT22;2117;47.972;7.830;2022-09-02T04:26:07;14.20;99.90
4207;DHT22;2117;47.972;7.830;2022-09-02T04:28:32;14.20;99.90
4207;DHT22;2117;47.972;7.830;2022-09-02T04:30:58;14.20;99.90
4207;DHT22;2117;47.972;7.830;2022-09-02T04:33:24;14.20;99.90
4207;DHT22;2117;47.972;7.830;2022-09-02T04:35:49;14.30;99.90
4207;DHT22;2117;47.972;7.830;2022-09-02T04:38:16;14.20;99.90
4207;DHT22;2117;47.972;7.830;2022-09-02T04:40:44;14.20;99.90
4207;DHT22;2117;47.972;7.830;2022-09-02T04:43:11;14.20;99.90
4207;DHT22;2117;47.972;7.830;2022-09-02T04:45:43;14.10;99.90
4207;DHT22;2117;47.972;7.830;2022-09-02T04:48:10;14.10;99.90
4207;DHT22;2117;47.972;7.830;2022-09-02T04:50:38;14.00;99.90
4207;DHT22;2117;47.972;7.830;2022-09-02T04:53:04;14.00;99.90
4207;DHT22;2117;47.972;7.830;2022-09-02T04:55:30;14.00;99.90
4207;DHT22;2117;47.972;7.830;2022-09-02T04:57:57;13.90;99.90
4207;DHT22;2117;47.972;7.830;2022-09-02T05:00:23;13.90;99.90
4207;DHT22;2117;47.972;7.830;2022-09-02T05:02:49;13.80;99.90
4207;DHT22;2117;47.972;7.830;2022-09-02T05:05:15;13.80;99.90
4207;DHT22;2117;47.972;7.830;2022-09-02T05:07:41;13.80;99.90
4207;DHT22;2117;47.972;7.830;2022-09-02T05:10:07;13.80;99.90
4207;DHT22;2117;47.972;7.830;2022-09-02T05:12:33;13.80;99.90
4207;DHT22;2117;47.972;7.830;2022-09-02T05:15:01;13.80;99.90
4207;DHT22;2117;47.972;7.830;2022-09-02T05:17:28;13.80;99.90
4207;DHT22;2117;47.972;7.830;2022-09-02T05:19:57;13.90;99.90
4207;DHT22;2117;47.972;7.830;2022-09-02T05:22:23;14.30;99.90
4207;DHT22;2117;47.972;7.830;2022-09-02T05:24:50;14.70;99.90
4207;DHT22;2117;47.972;7.830;2022-09-02T05:27:16;15.10;99.90
4207;DHT22;2117;47.972;7.830;2022-09-02T05:29:41;15.30;99.90
4207;DHT22;2117;47.972;7.830;2022-09-02T05:32:07;15.50;99.90
4207;DHT22;2117;47.972;7.830;2022-09-02T05:34:34;15.60;99.90
4207;DHT22;2117;47.972;7.830;2022-09-02T05:37:00;15.70;99.90
4207;DHT22;2117;47.972;7.830;2022-09-02T05:39:27;15.70;99.90
4207;DHT22;2117;47.972;7.830;2022-09-02T05:41:52;15.80;99.90
4207;DHT22;2117;47.972;7.830;2022-09-02T05:44:18;15.90;99.90
4207;DHT22;2117;47.972;7.830;2022-09-02T05:46:44;16.00;99.90
4207;DHT22;2117;47.972;7.830;2022-09-02T05:49:09;16.10;99.90
4207;DHT22;2117;47.972;7.830;2022-09-02T05:51:49;16.20;99.90
4207;DHT22;2117;47.972;7.830;2022-09-02T05:54:21;16.40;99.90
4207;DHT22;2117;47.972;7.830;2022-09-02T05:56:50;16.40;99.90
4207;DHT22;2117;47.972;7.830;2022-09-02T05:59:17;16.40;99.90
4207;DHT22;2117;47.972;7.830;2022-09-02T06:01:43;16.10;99.90
4207;DHT22;2117;47.972;7.830;2022-09-02T06:04:08;15.90;99.90
4207;DHT22;2117;47.972;7.830;2022-09-02T06:06:35;15.70;99.90
4207;DHT22;2117;47.972;7.830;2022-09-02T06:09:03;15.60;99.90
4207;DHT22;2117;47.972;7.830;2022-09-02T06:11:31;15.50;99.90
4207;DHT22;2117;47.972;7.830;2022-09-02T06:13:56;15.40;99.90
4207;DHT22;2117;47.972;7.830;2022-09-02T06:16:23;15.30;99.90
4207;DHT22;2117;47.972;7.830;2022-09-02T06:18:49;15.20;99.90
4207;DHT22;2117;47.972;7.830;2022-09-02T06:21:16;15.20;99.90
4207;DHT22;2117;47.972;7.830;2022-09-02T06:23:42;15.10;99.90
4207;DHT22;2117;47.972;7.830;2022-09-02T06:26:10;15.20;99.90
4207;DHT22;2117;47.972;7.830;2022-09-02T06:28:36;15.10;99.90
4207;DHT22;2117;47.972;7.830;2022-09-02T06:31:08;15.20;99.90
4207;DHT22;2117;47.972;7.830;2022-09-02T06:33:34;15.20;99.90
4207;DHT22;2117;47.972;7.830;2022-09-02T06:36:00;15.20;99.90
4207;DHT22;2117;47.972;7.830;2022-09-02T06:38:25;15.30;99.90
4207;DHT22;2117;47.972;7.830;2022-09-02T06:40:53;15.20;99.90
4207;DHT22;2117;47.972;7.830;2022-09-02T06:43:19;15.30;99.90
4207;DHT22;2117;47.972;7.830;2022-09-02T06:45:45;15.30;99.90
4207;DHT22;2117;47.972;7.830;2022-09-02T06:48:11;15.30;99.90
4207;DHT22;2117;47.972;7.830;2022-09-02T06:50:42;15.40;99.90
4207;DHT22;2117;47.972;7.830;2022-09-02T06:53:08;15.40;99.90
4207;DHT22;2117;47.972;7.830;2022-09-02T06:55:37;15.50;99.90
4207;DHT22;2117;47.972;7.830;2022-09-02T06:58:03;15.60;99.90
4207;DHT22;2117;47.972;7.830;2022-09-02T07:00:29;15.60;99.90
4207;DHT22;2117;47.972;7.830;2022-09-02T07:02:57;15.70;99.90
4207;DHT22;2117;47.972;7.830;2022-09-02T07:05:41;15.80;99.90
4207;DHT22;2117;47.972;7.830;2022-09-02T07:08:06;15.80;99.90
4207;DHT22;2117;47.972;7.830;2022-09-02T07:10:32;15.90;99.90
4207;DHT22;2117;47.972;7.830;2022-09-02T07:13:01;16.00;99.90
4207;DHT22;2117;47.972;7.830;2022-09-02T07:15:26;16.10;99.90
4207;DHT22;2117;47.972;7.830;2022-09-02T07:17:52;16.20;99.90
4207;DHT22;2117;47.972;7.830;2022-09-02T07:20:18;16.30;99.90
4207;DHT22;2117;47.972;7.830;2022-09-02T07:22:44;16.30;99.90
4207;DHT22;2117;47.972;7.830;2022-09-02T07:25:09;16.40;99.90
4207;DHT22;2117;47.972;7.830;2022-09-02T07:27:35;16.50;99.90
4207;DHT22;2117;47.972;7.830;2022-09-02T07:30:02;16.60;99.90
4207;DHT22;2117;47.972;7.830;2022-09-02T07:32:30;16.70;99.90
4207;DHT22;2117;47.972;7.830;2022-09-02T07:34:55;16.80;99.90
4207;DHT22;2117;47.972;7.830;2022-09-02T07:37:22;16.80;99.90
4207;DHT22;2117;47.972;7.830;2022-09-02T07:39:48;16.90;99.90
4207;DHT22;2117;47.972;7.830;2022-09-02T07:42:15;17.00;99.90
4207;DHT22;2117;47.972;7.830;2022-09-02T07:44:41;17.10;99.90
4207;DHT22;2117;47.972;7.830;2022-09-02T07:47:07;17.10;99.90
4207;DHT22;2117;47.972;7.830;2022-09-02T07:49:33;17.20;99.90
4207;DHT22;2117;47.972;7.830;2022-09-02T07:51:58;17.30;99.90
4207;DHT22;2117;47.972;7.830;2022-09-02T07:54:25;17.40;99.90
4207;DHT22;2117;47.972;7.830;2022-09-02T07:56:51;17.50;99.90
4207;DHT22;2117;47.972;7.830;2022-09-02T07:59:19;17.50;99.90
4207;DHT22;2117;47.972;7.830;2022-09-02T08:01:46;17.70;99.90
4207;DHT22;2117;47.972;7.830;2022-09-02T08:04:13;17.70;99.90
4207;DHT22;2117;47.972;7.830;2022-09-02T08:06:40;17.80;99.90
4207;DHT22;2117;47.972;7.830;2022-09-02T08:09:08;17.90;99.90
4207;DHT22;2117;47.972;7.830;2022-09-02T08:11:43;17.90;99.90
4207;DHT22;2117;47.972;7.830;2022-09-02T08:14:12;18.00;99.90
4207;DHT22;2117;47.972;7.830;2022-09-02T08:16:38;18.00;99.90
4207;DHT22;2117;47.972;7.830;2022-09-02T08:19:05;18.10;99.90
4207;DHT22;2117;47.972;7.830;2022-09-02T08:21:31;18.10;99.90
4207;DHT22;2117;47.972;7.830;2022-09-02T08:23:56;18.20;99.90
4207;DHT22;2117;47.972;7.830;2022-09-02T08:26:23;18.30;99.90
4207;DHT22;2117;47.972;7.830;2022-09-02T08:28:50;18.40;99.90
4207;DHT22;2117;47.972;7.830;2022-09-02T08:31:16;18.50;99.90
4207;DHT22;2117;47.972;7.830;2022-09-02T08:33:42;18.60;99.90
4207;DHT22;2117;47.972;7.830;2022-09-02T08:36:09;18.60;99.90
4207;DHT22;2117;47.972;7.830;2022-09-02T08:38:36;18.60;99.90
4207;DHT22;2117;47.972;7.830;2022-09-02T08:42:00;18.70;99.90
4207;DHT22;2117;47.972;7.830;2022-09-02T08:43:58;18.80;99.90
4207;DHT22;2117;47.972;7.830;2022-09-02T08:46:26;18.80;99.90
4207;DHT22;2117;47.972;7.830;2022-09-02T08:49:02;18.90;99.90
4207;DHT22;2117;47.972;7.830;2022-09-02T08:54:05;19.00;99.90
4207;DHT22;2117;47.972;7.830;2022-09-02T08:56:32;19.10;99.90
4207;DHT22;2117;47.972;7.830;2022-09-02T08:58:57;19.10;99.90
4207;DHT22;2117;47.972;7.830;2022-09-02T09:07:05;19.40;99.90
4207;DHT22;2117;47.972;7.830;2022-09-02T09:12:36;19.50;99.90
4207;DHT22;2117;47.972;7.830;2022-09-02T09:15:16;19.50;99.90
4207;DHT22;2117;47.972;7.830;2022-09-02T09:17:47;19.60;99.90
4207;DHT22;2117;47.972;7.830;2022-09-02T09:20:21;19.70;99.90
4207;DHT22;2117;47.972;7.830;2022-09-02T09:22:50;19.80;99.90
4207;DHT22;2117;47.972;7.830;2022-09-02T09:25:17;19.90;99.90
4207;DHT22;2117;47.972;7.830;2022-09-02T09:27:43;20.00;99.90
4207;DHT22;2117;47.972;7.830;2022-09-02T09:30:12;20.10;99.90
4207;DHT22;2117;47.972;7.830;2022-09-02T09:32:46;20.20;99.90
4207;DHT22;2117;47.972;7.830;2022-09-02T09:35:17;20.30;99.90
4207;DHT22;2117;47.972;7.830;2022-09-02T09:37:52;20.40;99.90
4207;DHT22;2117;47.972;7.830;2022-09-02T09:42:45;20.60;99.90
4207;DHT22;2117;47.972;7.830;2022-09-02T09:45:38;20.70;99.90
4207;DHT22;2117;47.972;7.830;2022-09-02T09:50:41;20.90;99.90
4207;DHT22;2117;47.972;7.830;2022-09-02T09:53:31;20.90;99.90
4207;DHT22;2117;47.972;7.830;2022-09-02T09:55:59;21.00;99.90
4207;DHT22;2117;47.972;7.830;2022-09-02T10:03:41;21.40;99.90
4207;DHT22;2117;47.972;7.830;2022-09-02T10:09:03;21.70;99.90
4207;DHT22;2117;47.972;7.830;2022-09-02T10:11:32;21.80;99.90
4207;DHT22;2117;47.972;7.830;2022-09-02T10:14:00;21.90;99.90
4207;DHT22;2117;47.972;7.830;2022-09-02T10:25:13;22.20;99.90
4207;DHT22;2117;47.972;7.830;2022-09-02T10:30:48;22.20;99.90
4207;DHT22;2117;47.972;7.830;2022-09-02T10:36:15;22.40;99.90
4207;DHT22;2117;47.972;7.830;2022-09-02T10:38:46;22.50;99.90
4207;DHT22;2117;47.972;7.830;2022-09-02T10:41:30;22.70;99.90
4207;DHT22;2117;47.972;7.830;2022-09-02T10:43:59;23.00;99.90
4207;DHT22;2117;47.972;7.830;2022-09-02T10:46:34;23.10;99.90
4207;DHT22;2117;47.972;7.830;2022-09-02T10:49:09;23.30;99.90
4207;DHT22;2117;47.972;7.830;2022-09-02T10:52:03;23.50;99.90
4207;DHT22;2117;47.972;7.830;2022-09-02T10:54:48;23.70;99.90
4207;DHT22;2117;47.972;7.830;2022-09-02T10:57:27;23.90;99.90
4207;DHT22;2117;47.972;7.830;2022-09-02T11:00:08;24.10;99.90
4207;DHT22;2117;47.972;7.830;2022-09-02T11:02:41;24.30;99.90
4207;DHT22;2117;47.972;7.830;2022-09-02T11:05:13;24.50;99.90
4207;DHT22;2117;47.972;7.830;2022-09-02T11:07:46;24.60;99.90
4207;DHT22;2117;47.972;7.830;2022-09-02T11:10:27;24.90;99.90
4207;DHT22;2117;47.972;7.830;2022-09-02T11:13:01;25.30;99.90
4207;DHT22;2117;47.972;7.830;2022-09-02T11:18:40;26.00;98.80
4207;DHT22;2117;47.972;7.830;2022-09-02T11:23:59;26.30;98.00
4207;DHT22;2117;47.972;7.830;2022-09-02T11:26:45;26.70;97.10
4207;DHT22;2117;47.972;7.830;2022-09-02T11:29:34;26.80;96.90
4207;DHT22;2117;47.972;7.830;2022-09-02T11:34:46;27.30;96.50
4207;DHT22;2117;47.972;7.830;2022-09-02T11:37:26;27.30;96.10
4207;DHT22;2117;47.972;7.830;2022-09-02T11:39:57;27.70;95.90
4207;DHT22;2117;47.972;7.830;2022-09-02T11:43:03;28.00;94.30
4207;DHT22;2117;47.972;7.830;2022-09-02T11:48:38;28.40;94.40
4207;DHT22;2117;47.972;7.830;2022-09-02T11:54:00;28.20;92.20
4207;DHT22;2117;47.972;7.830;2022-09-02T11:56:34;28.40;92.10
4207;DHT22;2117;47.972;7.830;2022-09-02T11:59:01;28.70;92.10
4207;DHT22;2117;47.972;7.830;2022-09-02T12:01:49;29.00;91.70
4207;DHT22;2117;47.972;7.830;2022-09-02T12:09:48;29.60;91.50
4207;DHT22;2117;47.972;7.830;2022-09-02T12:15:12;29.50;90.00
4207;DHT22;2117;47.972;7.830;2022-09-02T12:18:06;29.50;90.70
4207;DHT22;2117;47.972;7.830;2022-09-02T12:23:05;30.30;93.20
4207;DHT22;2117;47.972;7.830;2022-09-02T12:28:21;30.70;91.40
4207;DHT22;2117;47.972;7.830;2022-09-02T12:33:32;32.00;88.50
4207;DHT22;2117;47.972;7.830;2022-09-02T12:35:59;32.60;87.90
4207;DHT22;2117;47.972;7.830;2022-09-02T12:38:33;32.90;83.70
4207;DHT22;2117;47.972;7.830;2022-09-02T12:41:06;33.40;88.40
4207;DHT22;2117;47.972;7.830;2022-09-02T12:44:00;33.90;86.20
4207;DHT22;2117;47.972;7.830;2022-09-02T12:46:58;34.20;84.40
4207;DHT22;2117;47.972;7.830;2022-09-02T12:49:59;34.50;84.00
4207;DHT22;2117;47.972;7.830;2022-09-02T12:52:40;34.70;80.40
4207;DHT22;2117;47.972;7.830;2022-09-02T12:55:24;35.00;79.60
4207;DHT22;2117;47.972;7.830;2022-09-02T12:57:55;35.00;77.50
4207;DHT22;2117;47.972;7.830;2022-09-02T13:19:41;34.30;73.70
4207;DHT22;2117;47.972;7.830;2022-09-02T13:33:07;33.90;73.70
4207;DHT22;2117;47.972;7.830;2022-09-02T13:35:37;34.10;73.50
4207;DHT22;2117;47.972;7.830;2022-09-02T13:38:03;34.20;75.20
4207;DHT22;2117;47.972;7.830;2022-09-02T13:43:00;34.00;73.30
4207;DHT22;2117;47.972;7.830;2022-09-02T13:45:27;33.70;72.20
4207;DHT22;2117;47.972;7.830;2022-09-02T13:48:14;33.70;74.30
4207;DHT22;2117;47.972;7.830;2022-09-02T13:50:46;34.00;73.50
4207;DHT22;2117;47.972;7.830;2022-09-02T13:53:41;33.90;71.60
4207;DHT22;2117;47.972;7.830;2022-09-02T13:56:07;34.00;74.10
4207;DHT22;2117;47.972;7.830;2022-09-02T13:58:37;33.70;72.60
4207;DHT22;2117;47.972;7.830;2022-09-02T14:03:50;33.50;73.50
4207;DHT22;2117;47.972;7.830;2022-09-02T14:06:23;33.80;72.00
4207;DHT22;2117;47.972;7.830;2022-09-02T14:08:55;33.90;72.70
4207;DHT22;2117;47.972;7.830;2022-09-02T14:11:23;32.90;70.70
4207;DHT22;2117;47.972;7.830;2022-09-02T14:13:50;32.80;74.70
4207;DHT22;2117;47.972;7.830;2022-09-02T14:16:27;32.80;72.60
4207;DHT22;2117;47.972;7.830;2022-09-02T14:24:12;32.70;73.50
4207;DHT22;2117;47.972;7.830;2022-09-02T14:26:44;32.00;74.10
4207;DHT22;2117;47.972;7.830;2022-09-02T14:29:15;31.90;75.00
4207;DHT22;2117;47.972;7.830;2022-09-02T14:31:42;31.40;76.20
4207;DHT22;2117;47.972;7.830;2022-09-02T14:34:37;31.90;77.70
4207;DHT22;2117;47.972;7.830;2022-09-02T14:37:23;32.20;76.40
4207;DHT22;2117;47.972;7.830;2022-09-02T14:42:28;32.00;77.20
4207;DHT22;2117;47.972;7.830;2022-09-02T14:44:54;32.30;78.90
4207;DHT22;2117;47.972;7.830;2022-09-02T14:47:20;31.70;77.90
4207;DHT22;2117;47.972;7.830;2022-09-02T14:49:48;31.60;77.80
4207;DHT22;2117;47.972;7.830;2022-09-02T14:52:19;31.50;77.70
4207;DHT22;2117;47.972;7.830;2022-09-02T14:54:50;31.30;79.70
4207;DHT22;2117;47.972;7.830;2022-09-02T14:57:33;31.20;80.60
4207;DHT22;2117;47.972;7.830;2022-09-02T15:00:08;30.80;82.40
4207;DHT22;2117;47.972;7.830;2022-09-02T15:02:36;30.30;81.10
4207;DHT22;2117;47.972;7.830;2022-09-02T15:05:07;29.90;82.50
4207;DHT22;2117;47.972;7.830;2022-09-02T15:07:33;29.50;82.40
4207;DHT22;2117;47.972;7.830;2022-09-02T15:09:59;29.10;83.00
4207;DHT22;2117;47.972;7.830;2022-09-02T15:12:27;29.10;84.20
4207;DHT22;2117;47.972;7.830;2022-09-02T15:14:55;29.10;87.30
4207;DHT22;2117;47.972;7.830;2022-09-02T15:17:20;29.10;86.50
4207;DHT22;2117;47.972;7.830;2022-09-02T15:19:46;29.00;86.10
4207;DHT22;2117;47.972;7.830;2022-09-02T15:22:13;28.70;84.90
4207;DHT22;2117;47.972;7.830;2022-09-02T15:24:39;28.50;85.00
4207;DHT22;2117;47.972;7.830;2022-09-02T15:27:06;28.30;85.30
4207;DHT22;2117;47.972;7.830;2022-09-02T15:29:31;27.90;85.90
4207;DHT22;2117;47.972;7.830;2022-09-02T15:31:57;27.70;86.50
4207;DHT22;2117;47.972;7.830;2022-09-02T15:34:23;27.40;86.50
4207;DHT22;2117;47.972;7.830;2022-09-02T15:36:49;27.20;86.50
4207;DHT22;2117;47.972;7.830;2022-09-02T15:39:15;26.90;86.80
4207;DHT22;2117;47.972;7.830;2022-09-02T15:41:44;26.80;87.50
4207;DHT22;2117;47.972;7.830;2022-09-02T15:44:10;26.80;88.40
4207;DHT22;2117;47.972;7.830;2022-09-02T15:46:36;26.70;89.20
4207;DHT22;2117;47.972;7.830;2022-09-02T15:49:06;26.40;88.80
4207;DHT22;2117;47.972;7.830;2022-09-02T15:51:33;26.00;87.70
4207;DHT22;2117;47.972;7.830;2022-09-02T15:54:05;26.00;88.50
4207;DHT22;2117;47.972;7.830;2022-09-02T15:56:32;25.80;89.40
4207;DHT22;2117;47.972;7.830;2022-09-02T15:59:00;25.60;90.10
4207;DHT22;2117;47.972;7.830;2022-09-02T16:01:29;25.50;89.00
4207;DHT22;2117;47.972;7.830;2022-09-02T16:03:56;25.30;86.50
4207;DHT22;2117;47.972;7.830;2022-09-02T16:06:23;25.10;85.10
4207;DHT22;2117;47.972;7.830;2022-09-02T16:08:48;24.70;84.40
4207;DHT22;2117;47.972;7.830;2022-09-02T16:11:14;24.30;84.90
4207;DHT22;2117;47.972;7.830;2022-09-02T16:13:40;24.30;85.80
4207;DHT22;2117;47.972;7.830;2022-09-02T16:16:09;24.10;86.10
4207;DHT22;2117;47.972;7.830;2022-09-02T16:18:36;24.00;86.70
4207;DHT22;2117;47.972;7.830;2022-09-02T16:21:03;23.90;87.60
4207;DHT22;2117;47.972;7.830;2022-09-02T16:23:29;23.80;87.70
4207;DHT22;2117;47.972;7.830;2022-09-02T16:26:16;23.60;87.80
4207;DHT22;2117;47.972;7.830;2022-09-02T16:28:46;23.60;88.70
4207;DHT22;2117;47.972;7.830;2022-09-02T16:31:15;23.50;89.30
4207;DHT22;2117;47.972;7.830;2022-09-02T16:33:50;23.50;90.10
4207;DHT22;2117;47.972;7.830;2022-09-02T16:36:16;23.50;90.20
4207;DHT22;2117;47.972;7.830;2022-09-02T16:38:42;23.40;90.40
4207;DHT22;2117;47.972;7.830;2022-09-02T16:41:24;23.20;90.40
4207;DHT22;2117;47.972;7.830;2022-09-02T16:43:51;23.30;90.60
4207;DHT22;2117;47.972;7.830;2022-09-02T16:46:16;23.20;91.10
4207;DHT22;2117;47.972;7.830;2022-09-02T16:48:42;23.20;91.70
4207;DHT22;2117;47.972;7.830;2022-09-02T16:51:07;23.30;91.90
4207;DHT22;2117;47.972;7.830;2022-09-02T16:53:33;23.30;92.10
4207;DHT22;2117;47.972;7.830;2022-09-02T16:55:59;23.40;91.60
4207;DHT22;2117;47.972;7.830;2022-09-02T16:58:28;23.40;91.80
4207;DHT22;2117;47.972;7.830;2022-09-02T17:00:53;23.30;91.00
4207;DHT22;2117;47.972;7.830;2022-09-02T17:03:19;23.30;92.90
4207;DHT22;2117;47.972;7.830;2022-09-02T17:05:45;23.30;92.30
4207;DHT22;2117;47.972;7.830;2022-09-02T17:08:12;23.30;92.00
4207;DHT22;2117;47.972;7.830;2022-09-02T17:10:38;23.20;91.00
4207;DHT22;2117;47.972;7.830;2022-09-02T17:13:03;23.10;90.80
4207;DHT22;2117;47.972;7.830;2022-09-02T17:15:29;23.10;91.30
4207;DHT22;2117;47.972;7.830;2022-09-02T17:17:55;23.00;92.70
4207;DHT22;2117;47.972;7.830;2022-09-02T17:20:21;23.00;92.70
4207;DHT22;2117;47.972;7.830;2022-09-02T17:22:48;23.00;94.30
4207;DHT22;2117;47.972;7.830;2022-09-02T17:25:14;22.70;94.50
4207;DHT22;2117;47.972;7.830;2022-09-02T17:27:40;22.40;95.90
4207;DHT22;2117;47.972;7.830;2022-09-02T17:30:07;21.90;96.70
4207;DHT22;2117;47.972;7.830;2022-09-02T17:32:38;21.50;96.90
4207;DHT22;2117;47.972;7.830;2022-09-02T17:35:04;21.40;97.30
4207;DHT22;2117;47.972;7.830;2022-09-02T17:37:31;21.30;97.30
4207;DHT22;2117;47.972;7.830;2022-09-02T17:39:59;21.30;97.80
4207;DHT22;2117;47.972;7.830;2022-09-02T17:42:24;21.20;98.50
4207;DHT22;2117;47.972;7.830;2022-09-02T17:44:50;21.10;99.10
4207;DHT22;2117;47.972;7.830;2022-09-02T17:47:20;21.10;99.90
4207;DHT22;2117;47.972;7.830;2022-09-02T17:49:47;21.10;99.90
4207;DHT22;2117;47.972;7.830;2022-09-02T17:52:19;21.00;99.90
4207;DHT22;2117;47.972;7.830;2022-09-02T17:54:47;21.00;99.90
4207;DHT22;2117;47.972;7.830;2022-09-02T17:57:31;20.90;99.90
4207;DHT22;2117;47.972;7.830;2022-09-02T18:10:50;20.70;99.90
4207;DHT22;2117;47.972;7.830;2022-09-02T18:13:38;20.60;99.90
4207;DHT22;2117;47.972;7.830;2022-09-02T18:21:30;20.40;99.90
4207;DHT22;2117;47.972;7.830;2022-09-02T18:24:06;20.40;99.90
4207;DHT22;2117;47.972;7.830;2022-09-02T18:27:08;20.40;99.90
4207;DHT22;2117;47.972;7.830;2022-09-02T18:29:57;20.30;99.90
4207;DHT22;2117;47.972;7.830;2022-09-02T18:46:46;19.90;99.90
4207;DHT22;2117;47.972;7.830;2022-09-02T18:49:14;19.90;99.90
4207;DHT22;2117;47.972;7.830;2022-09-02T18:51:42;19.90;99.90
4207;DHT22;2117;47.972;7.830;2022-09-02T18:54:21;20.00;99.90
4207;DHT22;2117;47.972;7.830;2022-09-02T18:57:07;20.00;99.90
4207;DHT22;2117;47.972;7.830;2022-09-02T18:59:46;19.90;99.90
4207;DHT22;2117;47.972;7.830;2022-09-02T19:02:33;19.90;99.90
4207;DHT22;2117;47.972;7.830;2022-09-02T19:05:00;19.90;99.90
4207;DHT22;2117;47.972;7.830;2022-09-02T19:07:27;19.90;99.90
4207;DHT22;2117;47.972;7.830;2022-09-02T19:10:12;19.90;99.90
4207;DHT22;2117;47.972;7.830;2022-09-02T19:12:39;19.90;99.90
4207;DHT22;2117;47.972;7.830;2022-09-02T19:15:09;19.90;99.90
4207;DHT22;2117;47.972;7.830;2022-09-02T19:17:36;19.80;99.90
4207;DHT22;2117;47.972;7.830;2022-09-02T19:20:04;19.90;99.90
4207;DHT22;2117;47.972;7.830;2022-09-02T19:22:31;19.80;99.90
4207;DHT22;2117;47.972;7.830;2022-09-02T19:25:01;19.80;99.90
4207;DHT22;2117;47.972;7.830;2022-09-02T19:27:32;19.80;99.90
4207;DHT22;2117;47.972;7.830;2022-09-02T19:30:10;19.80;99.90
4207;DHT22;2117;47.972;7.830;2022-09-02T19:32:37;19.80;99.90
4207;DHT22;2117;47.972;7.830;2022-09-02T19:35:08;19.70;99.90
4207;DHT22;2117;47.972;7.830;2022-09-02T19:37:34;19.70;99.90
4207;DHT22;2117;47.972;7.830;2022-09-02T19:40:07;19.60;99.90
4207;DHT22;2117;47.972;7.830;2022-09-02T19:42:33;19.60;99.90
4207;DHT22;2117;47.972;7.830;2022-09-02T19:44:59;19.50;99.90
4207;DHT22;2117;47.972;7.830;2022-09-02T19:47:25;19.40;99.90
4207;DHT22;2117;47.972;7.830;2022-09-02T19:49:51;19.40;99.90
4207;DHT22;2117;47.972;7.830;2022-09-02T19:52:17;19.40;99.90
4207;DHT22;2117;47.972;7.830;2022-09-02T19:54:45;19.30;99.90
4207;DHT22;2117;47.972;7.830;2022-09-02T19:57:11;19.30;99.90
4207;DHT22;2117;47.972;7.830;2022-09-02T19:59:37;19.30;99.90
4207;DHT22;2117;47.972;7.830;2022-09-02T20:02:02;19.20;99.90
4207;DHT22;2117;47.972;7.830;2022-09-02T20:04:29;19.20;99.90
4207;DHT22;2117;47.972;7.830;2022-09-02T20:06:54;19.20;99.90
4207;DHT22;2117;47.972;7.830;2022-09-02T20:09:20;19.10;99.90
4207;DHT22;2117;47.972;7.830;2022-09-02T20:11:45;19.10;99.90
4207;DHT22;2117;47.972;7.830;2022-09-02T20:14:12;19.00;99.90
4207;DHT22;2117;47.972;7.830;2022-09-02T20:16:37;19.00;99.90
4207;DHT22;2117;47.972;7.830;2022-09-02T20:19:03;19.00;99.90
4207;DHT22;2117;47.972;7.830;2022-09-02T20:21:31;19.00;99.90
4207;DHT22;2117;47.972;7.830;2022-09-02T20:24:05;18.90;99.90
4207;DHT22;2117;47.972;7.830;2022-09-02T20:30:03;18.90;99.90
4207;DHT22;2117;47.972;7.830;2022-09-02T20:52:04;18.60;99.90
4207;DHT22;2117;47.972;7.830;2022-09-02T20:54:53;18.60;99.90
4207;DHT22;2117;47.972;7.830;2022-09-02T20:57:25;18.60;99.90
4207;DHT22;2117;47.972;7.830;2022-09-02T21:02:54;18.60;99.90
4207;DHT22;2117;47.972;7.830;2022-09-02T21:05:27;18.60;99.90
4207;DHT22;2117;47.972;7.830;2022-09-02T21:08:08;18.60;99.90
4207;DHT22;2117;47.972;7.830;2022-09-02T21:10:41;18.60;99.90
4207;DHT22;2117;47.972;7.830;2022-09-02T21:13:34;18.50;99.90
4207;DHT22;2117;47.972;7.830;2022-09-02T21:16:17;18.50;99.90
4207;DHT22;2117;47.972;7.830;2022-09-02T21:21:37;18.50;99.90
4207;DHT22;2117;47.972;7.830;2022-09-02T21:24:17;18.50;99.90
4207;DHT22;2117;47.972;7.830;2022-09-02T21:27:17;18.50;99.90
4207;DHT22;2117;47.972;7.830;2022-09-02T21:32:36;18.40;99.90
4207;DHT22;2117;47.972;7.830;2022-09-02T21:35:07;18.30;99.90
4207;DHT22;2117;47.972;7.830;2022-09-02T21:37:36;18.30;99.90
4207;DHT22;2117;47.972;7.830;2022-09-02T21:40:07;18.30;99.90
4207;DHT22;2117;47.972;7.830;2022-09-02T21:50:41;18.10;99.90
4207;DHT22;2117;47.972;7.830;2022-09-02T21:53:20;18.00;99.90
4207;DHT22;2117;47.972;7.830;2022-09-02T21:56:22;18.00;99.90
4207;DHT22;2117;47.972;7.830;2022-09-02T21:59:18;18.00;99.90
4207;DHT22;2117;47.972;7.830;2022-09-02T22:01:51;17.80;99.90
4207;DHT22;2117;47.972;7.830;2022-09-02T22:04:52;17.80;99.90
4207;DHT22;2117;47.972;7.830;2022-09-02T22:10:40;17.70;99.90
4207;DHT22;2117;47.972;7.830;2022-09-02T22:13:09;17.70;99.90
4207;DHT22;2117;47.972;7.830;2022-09-02T22:23:34;17.40;99.90
4207;DHT22;2117;47.972;7.830;2022-09-02T22:26:16;17.40;99.90
4207;DHT22;2117;47.972;7.830;2022-09-02T22:28:45;17.30;99.90
